createdAt,value
2018-11-22T12:18:14.014Z,21.73
2018-11-22T12:20:41.045Z,27.33
2018-11-22T12:23:08.067Z,21.97
2018-11-22T12:25:35.159Z,23.43
2018-11-22T12:28:02.563Z,24.43
2018-11-22T12:30:30.937Z,26.53
2018-11-22T12:32:57.989Z,28.00
2018-11-22T12:35:30.830Z,26.13
2018-11-22T12:38:03.948Z,26.83
2018-11-22T12:40:30.990Z,26.10
2018-11-22T12:42:58.104Z,27.70
2018-11-22T12:45:25.565Z,26.63
2018-11-22T12:47:52.604Z,28.63
2018-11-22T12:50:19.733Z,26.60
2018-11-22T12:52:46.821Z,20.57
2018-11-22T12:55:20.177Z,25.97
2018-11-22T12:57:47.357Z,26.30
2018-11-22T13:00:15.357Z,21.67
2018-11-22T13:02:42.740Z,28.47
2018-11-22T13:05:10.757Z,28.30
2018-11-22T13:07:38.043Z,27.63
2018-11-22T13:10:15.788Z,28.30
2018-11-22T13:12:44.001Z,27.80
2018-11-22T13:15:12.711Z,21.20
2018-11-22T13:17:40.155Z,29.37
2018-11-22T13:20:08.121Z,29.80
2018-11-22T13:22:35.240Z,28.20
2018-11-22T13:25:02.709Z,23.10
2018-11-22T13:27:29.804Z,27.70
2018-11-22T13:29:56.865Z,29.00
2018-11-22T13:32:23.968Z,31.03
2018-11-22T13:34:51.037Z,28.70
2018-11-22T13:37:18.076Z,25.67
2018-11-22T13:39:45.123Z,28.00
2018-11-22T13:42:12.252Z,26.53
2018-11-22T13:44:39.281Z,26.80
2018-11-22T13:47:06.388Z,29.10
2018-11-22T13:49:33.457Z,26.80
2018-11-22T13:52:00.521Z,28.67
2018-11-22T13:54:27.577Z,29.20
2018-11-22T13:56:54.832Z,29.20
2018-11-22T13:59:22.022Z,29.80
2018-11-22T14:01:49.457Z,29.67
2018-11-22T14:04:16.516Z,21.03
2018-11-22T14:06:43.660Z,24.33
2018-11-22T14:09:11.417Z,23.60
2018-11-22T14:11:38.447Z,29.13
2018-11-22T14:14:05.484Z,25.97
2018-11-22T14:16:32.595Z,30.10
2018-11-22T14:18:59.668Z,32.43
2018-11-22T14:21:26.851Z,30.67
2018-11-22T14:23:53.928Z,33.90
2018-11-22T14:26:20.996Z,30.57
2018-11-22T14:28:48.053Z,31.53
2018-11-22T14:31:15.125Z,27.67
2018-11-22T14:33:42.165Z,29.60
2018-11-22T14:36:09.269Z,26.50
2018-11-22T14:38:36.601Z,28.70
2018-11-22T14:41:03.964Z,31.17
2018-11-22T14:43:31.084Z,20.70
2018-11-22T14:45:58.509Z,26.50
2018-11-22T14:48:25.626Z,32.17
2018-11-22T14:50:55.331Z,32.83
2018-11-22T14:53:22.425Z,33.63
2018-11-22T14:55:49.454Z,32.90
2018-11-22T14:58:16.498Z,32.97
2018-11-22T15:00:43.636Z,31.13
2018-11-22T15:03:10.672Z,31.83
2018-11-22T15:05:37.704Z,28.87
2018-11-22T15:08:04.788Z,31.67
2018-11-22T15:10:31.829Z,32.23
2018-11-22T15:12:59.031Z,28.13
2018-11-22T15:15:27.029Z,33.00
2018-11-22T15:17:54.051Z,30.40
2018-11-22T15:20:21.245Z,32.53
2018-11-22T15:22:49.318Z,32.50
2018-11-22T15:25:18.788Z,25.70
2018-11-22T15:27:45.876Z,32.17
2018-11-22T15:30:14.651Z,30.80
2018-11-22T15:32:41.704Z,30.90
2018-11-22T15:35:10.191Z,30.40
2018-11-22T15:37:38.489Z,31.83
2018-11-22T15:40:05.716Z,31.17
2018-11-22T15:42:33.064Z,24.53
2018-11-22T15:45:00.568Z,24.90
2018-11-22T15:47:27.589Z,27.80
2018-11-22T15:49:54.653Z,31.90
2018-11-22T15:52:21.974Z,32.00
2018-11-22T15:54:49.053Z,30.10
2018-11-22T15:57:16.090Z,29.50
2018-11-22T15:59:43.224Z,28.37
2018-11-22T16:02:10.257Z,32.40
2018-11-22T16:04:37.327Z,30.20
2018-11-22T16:07:04.600Z,27.17
2018-11-22T16:09:31.629Z,32.60
2018-11-22T16:11:58.658Z,28.63
2018-11-22T16:14:25.704Z,29.20
2018-11-22T16:16:52.738Z,29.43
2018-11-22T16:19:19.781Z,22.03
2018-11-22T16:21:47.149Z,26.43
2018-11-22T16:24:14.172Z,22.77
2018-11-22T16:26:42.198Z,23.30
2018-11-22T16:29:09.628Z,29.97
2018-11-22T16:31:36.760Z,28.50
2018-11-22T16:34:03.913Z,31.10
2018-11-22T16:36:30.952Z,30.37
2018-11-22T16:38:58.096Z,31.77
2018-11-22T16:41:25.164Z,23.90
2018-11-22T16:43:52.444Z,30.60
2018-11-22T16:46:19.496Z,26.57
2018-11-22T16:48:46.557Z,28.17
2018-11-22T16:51:13.836Z,28.83
2018-11-22T16:53:40.855Z,22.57
2018-11-22T16:56:07.915Z,29.10
2018-11-22T16:58:34.962Z,23.60
2018-11-22T17:01:02.067Z,28.77
2018-11-22T17:03:29.129Z,27.83
2018-11-22T17:05:56.472Z,26.70
2018-11-22T17:08:23.640Z,30.20
2018-11-22T17:10:50.708Z,23.63
2018-11-22T17:13:18.033Z,30.13
2018-11-22T17:15:45.078Z,27.40
2018-11-22T17:18:12.153Z,23.27
2018-11-22T17:20:39.681Z,28.60
2018-11-22T17:23:07.204Z,30.13
2018-11-22T17:25:35.137Z,30.73
2018-11-22T17:28:04.589Z,26.10
2018-11-22T17:30:33.113Z,28.30
2018-11-22T17:35:34.306Z,31.20
2018-11-22T17:38:02.685Z,26.77
2018-11-22T17:40:31.084Z,30.40
2018-11-22T17:42:58.528Z,27.93
2018-11-22T17:45:30.783Z,33.10
2018-11-22T17:47:57.977Z,28.30
2018-11-22T17:50:27.783Z,25.57
2018-11-22T17:52:54.963Z,35.97
2018-11-22T17:55:23.705Z,32.60
2018-11-22T17:57:50.805Z,32.40
2018-11-22T18:00:19.534Z,35.00
2018-11-22T18:02:48.252Z,33.33
2018-11-22T18:05:15.352Z,33.90
2018-11-22T18:07:42.429Z,32.40
2018-11-22T18:10:11.544Z,33.13
2018-11-22T18:12:38.993Z,33.60
2018-11-22T18:15:06.937Z,29.67
2018-11-22T18:17:34.222Z,28.90
2018-11-22T18:20:01.353Z,28.40
2018-11-22T18:22:28.400Z,31.70
2018-11-22T18:24:55.801Z,31.97
2018-11-22T18:27:22.929Z,34.50
2018-11-22T18:29:50.085Z,31.77
2018-11-22T18:32:17.561Z,32.47
2018-11-22T18:34:44.637Z,36.07
2018-11-22T18:37:11.984Z,35.53
2018-11-22T18:39:39.329Z,32.63
2018-11-22T18:42:06.397Z,30.07
2018-11-22T18:44:33.481Z,33.77
2018-11-22T18:47:00.973Z,32.80
2018-11-22T18:49:28.176Z,33.77
2018-11-22T18:51:55.224Z,32.63
2018-11-22T18:54:22.640Z,32.90
2018-11-22T18:56:49.720Z,24.60
2018-11-22T18:59:16.760Z,33.47
2018-11-22T19:01:45.074Z,27.60
2018-11-22T19:04:11.189Z,32.83
2018-11-22T19:06:38.243Z,35.03
2018-11-22T19:09:07.268Z,27.87
2018-11-22T19:11:34.378Z,26.80
2018-11-22T19:14:01.432Z,31.47
2018-11-22T19:16:28.733Z,31.57
2018-11-22T19:18:55.774Z,32.73
2018-11-22T19:21:22.892Z,23.83
2018-11-22T19:23:50.234Z,36.10
2018-11-22T19:26:17.284Z,33.97
2018-11-22T19:28:44.316Z,33.00
2018-11-22T19:31:11.625Z,34.13
2018-11-22T19:33:38.697Z,26.80
2018-11-22T19:36:05.785Z,31.40
2018-11-22T19:38:39.861Z,30.77
2018-11-22T19:41:06.923Z,32.70
2018-11-22T19:43:34.017Z,34.17
2018-11-22T19:46:01.383Z,33.43
2018-11-22T19:48:28.430Z,30.73
2018-11-22T19:50:55.533Z,31.33
2018-11-22T19:53:22.834Z,23.40
2018-11-22T19:55:49.977Z,34.70
2018-11-22T19:58:17.656Z,31.23
2018-11-22T20:00:44.768Z,32.10
2018-11-22T20:03:11.847Z,31.10
2018-11-22T20:05:39.997Z,28.70
2018-11-22T20:08:11.075Z,29.00
2018-11-22T20:10:39.801Z,32.40
2018-11-22T20:13:07.184Z,32.90
2018-11-22T20:15:34.909Z,32.23
2018-11-22T20:18:03.292Z,30.30
2018-11-22T20:20:30.445Z,28.00
2018-11-22T20:22:58.384Z,29.67
2018-11-22T20:25:25.777Z,26.40
2018-11-22T20:27:53.948Z,24.83
2018-11-22T20:30:23.144Z,28.93
2018-11-22T20:32:50.274Z,24.07
2018-11-22T20:35:18.245Z,16.73
2018-11-22T20:37:46.234Z,25.93
2018-11-22T20:40:14.841Z,25.63
2018-11-22T20:42:42.068Z,27.57
2018-11-22T20:45:10.618Z,28.17
2018-11-22T20:47:38.381Z,24.90
2018-11-22T20:50:06.437Z,24.97
2018-11-22T20:52:33.625Z,23.53
2018-11-22T20:55:00.752Z,19.47
2018-11-22T20:57:27.871Z,22.67
2018-11-22T20:59:55.960Z,27.87
2018-11-22T21:02:23.287Z,28.30
2018-11-22T21:04:50.466Z,23.70
2018-11-22T21:07:17.605Z,22.17
2018-11-22T21:09:44.768Z,26.23
2018-11-22T21:12:11.993Z,20.10
2018-11-22T21:14:39.476Z,22.77
2018-11-22T21:17:06.600Z,24.30
2018-11-22T21:19:33.775Z,26.17
2018-11-22T21:22:01.430Z,24.80
2018-11-22T21:24:29.215Z,26.50
2018-11-22T21:26:56.902Z,25.07
2018-11-22T21:29:24.852Z,23.27
2018-11-22T21:31:52.019Z,25.27
2018-11-22T21:34:19.075Z,24.47
2018-11-22T21:36:46.496Z,25.53
2018-11-22T21:39:13.572Z,22.47
2018-11-22T21:41:40.916Z,24.67
2018-11-22T21:44:08.557Z,22.17
2018-11-22T21:46:35.741Z,19.57
2018-11-22T21:49:03.536Z,23.50
2018-11-22T21:51:31.205Z,23.43
2018-11-22T21:53:58.477Z,23.60
2018-11-22T21:56:25.654Z,22.30
2018-11-22T21:58:52.826Z,21.10
2018-11-22T22:01:19.984Z,19.17
2018-11-22T22:03:47.202Z,21.23
2018-11-22T22:06:14.761Z,18.70
2018-11-22T22:08:42.077Z,17.93
2018-11-22T22:11:09.297Z,21.10
2018-11-22T22:13:36.553Z,22.50
2018-11-22T22:16:03.975Z,20.30
2018-11-22T22:18:31.092Z,16.90
2018-11-22T22:20:58.347Z,21.27
2018-11-22T22:23:25.645Z,20.73
2018-11-22T22:25:52.777Z,18.97
2018-11-22T22:28:20.240Z,21.60
2018-11-22T22:30:47.394Z,20.33
2018-11-22T22:33:14.747Z,20.37
2018-11-22T22:35:42.313Z,19.13
2018-11-22T22:38:09.489Z,21.80
2018-11-22T22:40:36.796Z,19.90
2018-11-22T22:43:04.566Z,22.07
2018-11-22T22:45:32.361Z,20.07
2018-11-22T22:47:59.532Z,17.03
2018-11-22T22:50:27.844Z,21.40
2018-11-22T22:52:56.328Z,18.67
2018-11-22T22:55:23.565Z,19.17
2018-11-22T22:57:50.828Z,20.23
2018-11-22T23:00:25.069Z,19.70
2018-11-22T23:02:54.699Z,21.63
2018-11-22T23:05:22.453Z,20.53
2018-11-22T23:07:49.921Z,20.07
2018-11-22T23:10:18.063Z,23.77
2018-11-22T23:12:45.154Z,20.57
2018-11-22T23:15:13.421Z,21.80
2018-11-22T23:17:40.885Z,23.13
2018-11-22T23:20:10.296Z,19.60
2018-11-22T23:22:37.726Z,22.23
2018-11-22T23:25:06.998Z,22.23
2018-11-22T23:27:34.320Z,22.33
2018-11-22T23:30:01.405Z,23.10
2018-11-22T23:32:28.546Z,22.63
2018-11-22T23:34:56.307Z,23.63
2018-11-22T23:37:23.505Z,23.23
2018-11-22T23:39:50.809Z,21.80
2018-11-22T23:42:17.900Z,16.23
2018-11-22T23:44:45.105Z,19.10
2018-11-22T23:47:12.591Z,24.87
2018-11-22T23:49:39.667Z,25.20
2018-11-22T23:52:06.736Z,23.90
2018-11-22T23:54:33.827Z,22.40
2018-11-22T23:57:00.961Z,23.10
2018-11-22T23:59:28.120Z,22.57
